createdAt,value
2023-05-19T00:01:15.345Z,102353.00
2023-05-19T00:03:54.230Z,102352.00
2023-05-19T00:06:25.737Z,102350.00
2023-05-19T00:08:57.779Z,102359.00
2023-05-19T00:11:26.916Z,102353.00
2023-05-19T00:13:59.364Z,102350.00
2023-05-19T00:16:28.459Z,102358.00
2023-05-19T00:18:55.503Z,102348.00
2023-05-19T00:21:22.092Z,102347.00
2023-05-19T00:23:48.732Z,102349.00
2023-05-19T00:26:15.340Z,102351.00
2023-05-19T00:28:41.888Z,102351.00
2023-05-19T00:31:08.489Z,102347.00
2023-05-19T00:33:35.139Z,102346.00
2023-05-19T00:36:03.690Z,102353.00
2023-05-19T00:38:35.337Z,102352.00
2023-05-19T00:41:03.137Z,102353.00
2023-05-19T00:43:34.422Z,102355.00
2023-05-19T00:46:01.278Z,102356.00
2023-05-19T00:48:28.013Z,102354.00
2023-05-19T00:50:58.020Z,102354.00
2023-05-19T00:53:24.648Z,102353.00
2023-05-19T00:55:51.221Z,102345.00
2023-05-19T00:58:18.604Z,102345.00
2023-05-19T01:00:45.818Z,102355.00
2023-05-19T01:03:12.572Z,102353.00
2023-05-19T01:05:44.898Z,102352.00
2023-05-19T01:08:11.586Z,102355.00
2023-05-19T01:10:38.224Z,102341.00
2023-05-19T01:13:07.419Z,102348.00
2023-05-19T01:15:40.306Z,102340.00
2023-05-19T01:18:16.818Z,102344.00
2023-05-19T01:20:53.622Z,102346.00
2023-05-19T01:23:36.766Z,102345.00
2023-05-19T01:26:10.392Z,102347.00
2023-05-19T01:28:39.773Z,102350.00
2023-05-19T01:31:09.744Z,102346.00
2023-05-19T01:33:37.737Z,102349.00
2023-05-19T01:36:07.742Z,102348.00
2023-05-19T01:38:34.876Z,102346.00
2023-05-19T01:41:04.158Z,102352.00
2023-05-19T01:43:31.744Z,102342.00
2023-05-19T01:45:59.285Z,102343.00
2023-05-19T01:48:27.032Z,102347.00
2023-05-19T01:50:53.590Z,102348.00
2023-05-19T01:53:20.325Z,102343.00
2023-05-19T01:55:51.382Z,102345.00
2023-05-19T01:58:47.459Z,102349.00
2023-05-19T02:01:22.312Z,102356.00
2023-05-19T02:04:15.566Z,102351.00
2023-05-19T02:06:44.482Z,102362.00
2023-05-19T02:09:41.285Z,102357.00
2023-05-19T02:12:19.629Z,102351.00
2023-05-19T02:14:54.830Z,102360.00
2023-05-19T02:17:23.552Z,102349.00
2023-05-19T02:19:50.848Z,102351.00
2023-05-19T02:22:18.640Z,102352.00
2023-05-19T02:24:46.639Z,102350.00
2023-05-19T02:27:13.269Z,102352.00
2023-05-19T02:29:40.068Z,102350.00
2023-05-19T02:32:07.190Z,102346.00
2023-05-19T02:34:34.082Z,102337.00
2023-05-19T02:37:01.566Z,102343.00
2023-05-19T02:39:30.670Z,102336.00
2023-05-19T02:41:57.292Z,102340.00
2023-05-19T02:44:23.873Z,102342.00
2023-05-19T02:46:50.632Z,102344.00
2023-05-19T02:49:17.487Z,102345.00
2023-05-19T02:51:44.026Z,102349.00
2023-05-19T02:54:10.764Z,102342.00
2023-05-19T02:56:37.361Z,102349.00
2023-05-19T02:59:03.923Z,102330.00
2023-05-19T03:01:32.933Z,102339.00
2023-05-19T03:03:59.810Z,102329.00
2023-05-19T03:06:26.695Z,102336.00
2023-05-19T03:08:53.258Z,102332.00
2023-05-19T03:11:22.266Z,102336.00
2023-05-19T03:13:48.958Z,102330.00
2023-05-19T03:16:15.928Z,102333.00
2023-05-19T03:18:43.349Z,102332.00
2023-05-19T03:21:09.990Z,102330.00
2023-05-19T03:23:36.830Z,102331.00
2023-05-19T03:26:03.384Z,102330.00
2023-05-19T03:28:30.039Z,102329.00
2023-05-19T03:30:56.821Z,102336.00
2023-05-19T03:33:24.029Z,102321.00
2023-05-19T03:35:51.109Z,102327.00
2023-05-19T03:38:17.626Z,102330.00
2023-05-19T03:40:45.190Z,102334.00
2023-05-19T03:43:11.790Z,102331.00
2023-05-19T03:45:38.636Z,102328.00
2023-05-19T03:48:06.150Z,102323.00
2023-05-19T03:50:34.123Z,102323.00
2023-05-19T03:53:00.982Z,102321.00
2023-05-19T03:55:29.980Z,102324.00
2023-05-19T03:57:57.150Z,102335.00
2023-05-19T04:00:24.000Z,102330.00
2023-05-19T04:02:51.601Z,102325.00
2023-05-19T04:05:18.241Z,102330.00
2023-05-19T04:07:46.736Z,102332.00
2023-05-19T04:10:13.761Z,102332.00
2023-05-19T04:12:41.860Z,102329.00
2023-05-19T04:15:11.610Z,102327.00
2023-05-19T04:17:38.650Z,102321.00
2023-05-19T04:20:08.661Z,102322.00
2023-05-19T04:22:35.312Z,102327.00
2023-05-19T04:25:02.129Z,102332.00
2023-05-19T04:27:30.129Z,102332.00
2023-05-19T04:29:58.232Z,102330.00
2023-05-19T04:32:26.724Z,102334.00
2023-05-19T04:34:54.776Z,102326.00
2023-05-19T04:37:21.352Z,102336.00
2023-05-19T04:39:48.653Z,102326.00
2023-05-19T04:42:19.597Z,102331.00
2023-05-19T04:44:46.784Z,102332.00
2023-05-19T04:47:13.455Z,102336.00
2023-05-19T04:49:40.278Z,102339.00
2023-05-19T04:52:07.809Z,102330.00
2023-05-19T04:54:35.229Z,102334.00
2023-05-19T04:57:01.811Z,102341.00
2023-05-19T04:59:28.673Z,102335.00
2023-05-19T05:01:56.233Z,102329.00
2023-05-19T05:04:23.882Z,102340.00
2023-05-19T05:06:50.592Z,102326.00
2023-05-19T05:09:18.041Z,102332.00
2023-05-19T05:11:46.494Z,102334.00
2023-05-19T05:14:13.338Z,102330.00
2023-05-19T05:16:40.421Z,102337.00
2023-05-19T05:19:07.371Z,102333.00
2023-05-19T05:21:34.149Z,102332.00
2023-05-19T05:24:01.168Z,102337.00
2023-05-19T05:26:31.595Z,102334.00
2023-05-19T05:28:58.252Z,102338.00
2023-05-19T05:31:24.869Z,102333.00
2023-05-19T05:33:51.575Z,102333.00
2023-05-19T05:36:18.155Z,102332.00
2023-05-19T05:38:44.981Z,102332.00
2023-05-19T05:41:11.510Z,102333.00
2023-05-19T05:43:38.214Z,102331.00
2023-05-19T05:46:04.814Z,102331.00
2023-05-19T05:48:31.828Z,102328.00
2023-05-19T05:51:02.118Z,102328.00
2023-05-19T05:53:30.951Z,102331.00
2023-05-19T05:55:58.031Z,102331.00
2023-05-19T05:58:24.660Z,102327.00
2023-05-19T06:00:53.465Z,102328.00
2023-05-19T06:03:26.606Z,102332.00
2023-05-19T06:05:53.499Z,102327.00
2023-05-19T06:08:20.537Z,102331.00
2023-05-19T06:10:47.584Z,102332.00
2023-05-19T06:13:16.681Z,102334.00
2023-05-19T06:15:44.207Z,102329.00
2023-05-19T06:18:10.819Z,102329.00
2023-05-19T06:20:38.008Z,102329.00
2023-05-19T06:23:04.845Z,102319.00
2023-05-19T06:25:31.681Z,102332.00
2023-05-19T06:27:58.377Z,102326.00
2023-05-19T06:30:24.938Z,102337.00
2023-05-19T06:32:51.569Z,102323.00
2023-05-19T06:35:19.203Z,102324.00
2023-05-19T06:37:46.287Z,102331.00
2023-05-19T06:40:13.134Z,102313.00
2023-05-19T06:42:39.663Z,102309.00
2023-05-19T06:45:07.007Z,102332.00
2023-05-19T06:47:35.046Z,102323.00
2023-05-19T06:50:02.065Z,102322.00
2023-05-19T06:52:28.577Z,102320.00
2023-05-19T06:54:55.455Z,102321.00
2023-05-19T06:57:23.112Z,102328.00
2023-05-19T06:59:49.606Z,102327.00
2023-05-19T07:02:16.217Z,102331.00
2023-05-19T07:04:43.426Z,102340.00
2023-05-19T07:07:10.506Z,102335.00
2023-05-19T07:09:38.482Z,102334.00
2023-05-19T07:12:05.481Z,102335.00
2023-05-19T07:14:32.031Z,102331.00
2023-05-19T07:16:58.859Z,102327.00
2023-05-19T07:19:25.527Z,102331.00
2023-05-19T07:21:52.676Z,102327.00
2023-05-19T07:24:21.358Z,102354.00
2023-05-19T07:26:49.490Z,102355.00
2023-05-19T07:29:16.646Z,102339.00
2023-05-19T07:31:43.794Z,102338.00
2023-05-19T07:34:10.773Z,102342.00
2023-05-19T07:36:37.338Z,102317.00
2023-05-19T07:39:03.883Z,102342.00
2023-05-19T07:41:31.206Z,102337.00
2023-05-19T07:43:58.154Z,102328.00
2023-05-19T07:46:24.749Z,102327.00
2023-05-19T07:48:51.270Z,102306.00
2023-05-19T07:51:17.945Z,102322.00
2023-05-19T07:53:44.594Z,102314.00
2023-05-19T07:56:11.470Z,102329.00
2023-05-19T07:58:38.012Z,102334.00
2023-05-19T08:01:04.870Z,102330.00
2023-05-19T08:03:31.627Z,102321.00
2023-05-19T08:05:58.508Z,102315.00
2023-05-19T08:08:25.164Z,102323.00
2023-05-19T08:10:51.709Z,102310.00
2023-05-19T08:13:18.369Z,102312.00
2023-05-19T08:15:44.990Z,102326.00
2023-05-19T08:18:11.720Z,102330.00
2023-05-19T08:20:38.362Z,102339.00
2023-05-19T08:23:05.666Z,102332.00
2023-05-19T08:25:32.520Z,102341.00
2023-05-19T08:27:59.937Z,102345.00
2023-05-19T08:30:26.937Z,102338.00
2023-05-19T08:32:53.911Z,102326.00
2023-05-19T08:35:20.632Z,102336.00
2023-05-19T08:37:48.067Z,102344.00
2023-05-19T08:40:18.354Z,102342.00
2023-05-19T08:42:45.987Z,102323.00
2023-05-19T08:45:13.167Z,102327.00
2023-05-19T08:47:42.189Z,102323.00
2023-05-19T08:50:11.509Z,102340.00
2023-05-19T08:53:12.772Z,102337.00
2023-05-19T08:56:01.750Z,102332.00
2023-05-19T08:58:29.097Z,102298.00
2023-05-19T09:00:57.005Z,102329.00
2023-05-19T09:03:24.268Z,102289.00
2023-05-19T09:05:52.077Z,102291.00
2023-05-19T09:08:18.948Z,102282.00
2023-05-19T09:10:45.593Z,102313.00
2023-05-19T09:13:12.200Z,102326.00
2023-05-19T09:15:39.905Z,102318.00
2023-05-19T09:18:11.699Z,102315.00
2023-05-19T09:20:42.220Z,102325.00
2023-05-19T09:23:16.412Z,102306.00
2023-05-19T09:25:50.928Z,102312.00
2023-05-19T09:28:32.322Z,102295.00
2023-05-19T09:31:10.434Z,102306.00
2023-05-19T09:33:45.258Z,102290.00
2023-05-19T09:36:12.658Z,102299.00
2023-05-19T09:38:40.406Z,102261.00
2023-05-19T09:41:09.472Z,102301.00
2023-05-19T09:43:36.609Z,102254.00
2023-05-19T09:46:07.854Z,102259.00
2023-05-19T09:48:36.551Z,102254.00
2023-05-19T09:51:06.354Z,102311.00
2023-05-19T09:53:34.562Z,102299.00
2023-05-19T09:56:06.560Z,102290.00
2023-05-19T09:58:37.284Z,102242.00
2023-05-19T10:01:05.931Z,102277.00
2023-05-19T10:03:34.991Z,102287.00
2023-05-19T10:06:05.582Z,102234.00
2023-05-19T10:08:36.089Z,102233.00
2023-05-19T10:11:03.440Z,102273.00
2023-05-19T10:13:31.116Z,102234.00
2023-05-19T10:16:00.067Z,102229.00
2023-05-19T10:18:30.454Z,102237.00
2023-05-19T10:20:58.440Z,102227.00
2023-05-19T10:23:25.595Z,102223.00
2023-05-19T10:25:56.371Z,102219.00
2023-05-19T10:28:28.255Z,102229.00
2023-05-19T10:31:01.271Z,102280.00
2023-05-19T10:33:55.572Z,102269.00
2023-05-19T10:36:32.146Z,102261.00
2023-05-19T10:39:25.493Z,102259.00
2023-05-19T10:42:09.302Z,102257.00
2023-05-19T10:45:10.644Z,102246.00
2023-05-19T10:47:37.305Z,102252.00
2023-05-19T10:50:06.803Z,102233.00
2023-05-19T10:52:37.455Z,102224.00
2023-05-19T10:55:05.767Z,102218.00
2023-05-19T10:57:33.570Z,102246.00
2023-05-19T11:00:22.534Z,102211.00
2023-05-19T11:02:55.992Z,102241.00
2023-05-19T11:05:33.247Z,102209.00
2023-05-19T11:08:11.772Z,102217.00
2023-05-19T11:10:39.309Z,102234.00
2023-05-19T11:13:06.744Z,102217.00
2023-05-19T11:15:38.990Z,102230.00
2023-05-19T11:18:06.097Z,102200.00
2023-05-19T11:20:34.923Z,102199.00
2023-05-19T11:23:06.121Z,102202.00
2023-05-19T11:25:53.966Z,102200.00
2023-05-19T11:28:26.302Z,102192.00
2023-05-19T11:30:55.381Z,102189.00
2023-05-19T11:33:27.258Z,102222.00
2023-05-19T11:36:00.465Z,102224.00
2023-05-19T11:38:28.741Z,102226.00
2023-05-19T11:40:56.383Z,102230.00
2023-05-19T11:43:27.226Z,102209.00
2023-05-19T11:45:57.818Z,102201.00
2023-05-19T11:48:26.431Z,102195.00
2023-05-19T11:50:53.643Z,102196.00
2023-05-19T11:53:21.825Z,102196.00
2023-05-19T11:55:49.809Z,102206.00
2023-05-19T11:58:20.217Z,102211.00
2023-05-19T12:00:47.914Z,102210.00
2023-05-19T12:03:15.214Z,102200.00
2023-05-19T12:05:46.646Z,102214.00
2023-05-19T12:08:13.941Z,102213.00
2023-05-19T12:10:41.356Z,102215.00
2023-05-19T12:13:09.832Z,102220.00
2023-05-19T12:15:37.030Z,102213.00
2023-05-19T12:18:04.100Z,102214.00
2023-05-19T12:20:37.868Z,102215.00
2023-05-19T12:23:05.111Z,102212.00
2023-05-19T12:25:32.612Z,102220.00
2023-05-19T12:28:03.320Z,102213.00
2023-05-19T12:30:32.605Z,102205.00
2023-05-19T12:33:00.202Z,102215.00
2023-05-19T12:35:28.177Z,102202.00
2023-05-19T12:37:55.844Z,102209.00
2023-05-19T12:40:22.654Z,102206.00
2023-05-19T12:42:53.026Z,102208.00
2023-05-19T12:45:22.403Z,102207.00
2023-05-19T12:47:50.525Z,102198.00
2023-05-19T12:50:17.394Z,102194.00
2023-05-19T12:52:49.721Z,102182.00
2023-05-19T12:55:17.022Z,102183.00
2023-05-19T12:57:47.957Z,102190.00
2023-05-19T13:00:25.688Z,102162.00
2023-05-19T13:02:59.029Z,102188.00
2023-05-19T13:05:27.105Z,102164.00
2023-05-19T13:08:02.376Z,102161.00
2023-05-19T13:10:29.701Z,102156.00
2023-05-19T13:12:56.953Z,102147.00
2023-05-19T13:15:25.404Z,102188.00
2023-05-19T13:17:52.633Z,102181.00
2023-05-19T13:20:20.274Z,102198.00
2023-05-19T13:22:48.075Z,102186.00
2023-05-19T13:25:14.679Z,102170.00
2023-05-19T13:27:41.532Z,102175.00
2023-05-19T13:30:08.667Z,102171.00
2023-05-19T13:32:35.516Z,102182.00
2023-05-19T13:35:02.413Z,102155.00
2023-05-19T13:37:29.270Z,102169.00
2023-05-19T13:39:58.427Z,102172.00
2023-05-19T13:42:24.969Z,102161.00
2023-05-19T13:44:55.787Z,102179.00
2023-05-19T13:47:25.869Z,102181.00
2023-05-19T13:49:53.464Z,102183.00
2023-05-19T13:52:21.812Z,102176.00
2023-05-19T13:54:49.165Z,102173.00
2023-05-19T13:57:16.686Z,102170.00
2023-05-19T13:59:57.693Z,102160.00
2023-05-19T14:02:30.206Z,102155.00
2023-05-19T14:04:59.849Z,102173.00
2023-05-19T14:07:27.241Z,102161.00
2023-05-19T14:09:55.360Z,102169.00
2023-05-19T14:12:27.532Z,102171.00
2023-05-19T14:17:25.251Z,102183.00
2023-05-19T14:19:51.935Z,102180.00
2023-05-19T14:22:20.392Z,102186.00
2023-05-19T14:24:46.949Z,102181.00
2023-05-19T14:27:13.512Z,102191.00
2023-05-19T14:29:40.186Z,102197.00
2023-05-19T14:32:07.422Z,102196.00
2023-05-19T14:34:35.333Z,102179.00
2023-05-19T14:37:02.709Z,102185.00
2023-05-19T14:39:30.769Z,102165.00
2023-05-19T14:41:59.541Z,102174.00
2023-05-19T14:44:31.919Z,102179.00
2023-05-19T14:47:01.382Z,102193.00
2023-05-19T14:49:28.009Z,102184.00
2023-05-19T14:51:54.620Z,102194.00
2023-05-19T14:54:21.203Z,102188.00
2023-05-19T14:56:48.068Z,102190.00
2023-05-19T14:59:14.807Z,102196.00
2023-05-19T15:01:41.397Z,102163.00
2023-05-19T15:04:08.063Z,102145.00
2023-05-19T15:06:34.594Z,102172.00
2023-05-19T15:09:01.372Z,102143.00
2023-05-19T15:11:27.958Z,102180.00
2023-05-19T15:13:54.875Z,102179.00
2023-05-19T15:16:21.685Z,102191.00
2023-05-19T15:18:48.379Z,102192.00
2023-05-19T15:21:14.951Z,102199.00
2023-05-19T15:23:41.499Z,102191.00
2023-05-19T15:26:08.001Z,102180.00
2023-05-19T15:28:34.502Z,102181.00
2023-05-19T15:31:01.116Z,102176.00
2023-05-19T15:33:27.916Z,102171.00
2023-05-19T15:35:56.168Z,102172.00
2023-05-19T15:38:22.732Z,102180.00
2023-05-19T15:40:49.346Z,102154.00
2023-05-19T15:43:15.962Z,102147.00
2023-05-19T15:45:42.531Z,102150.00
2023-05-19T15:48:09.246Z,102149.00
2023-05-19T15:50:37.954Z,102162.00
2023-05-19T15:53:07.107Z,102167.00
2023-05-19T15:55:33.946Z,102174.00
2023-05-19T15:58:00.607Z,102170.00
2023-05-19T16:00:27.948Z,102163.00
2023-05-19T16:02:54.556Z,102164.00
2023-05-19T16:05:21.181Z,102164.00
2023-05-19T16:07:47.775Z,102161.00
2023-05-19T16:10:14.652Z,102149.00
2023-05-19T16:12:41.234Z,102160.00
2023-05-19T16:15:08.028Z,102151.00
2023-05-19T16:17:35.026Z,102162.00
2023-05-19T16:20:01.856Z,102153.00
2023-05-19T16:22:30.400Z,102170.00
2023-05-19T16:24:57.152Z,102165.00
2023-05-19T16:27:23.750Z,102161.00
2023-05-19T16:29:51.683Z,102151.00
2023-05-19T16:32:18.467Z,102158.00
2023-05-19T16:34:46.575Z,102158.00
2023-05-19T16:37:14.118Z,102163.00
2023-05-19T16:39:41.789Z,102165.00
2023-05-19T16:42:08.303Z,102160.00
2023-05-19T16:44:35.057Z,102166.00
2023-05-19T16:47:01.696Z,102173.00
2023-05-19T16:49:28.409Z,102167.00
2023-05-19T16:51:55.850Z,102174.00
2023-05-19T16:54:23.547Z,102173.00
2023-05-19T16:56:50.616Z,102179.00
2023-05-19T16:59:17.426Z,102180.00
2023-05-19T17:01:44.822Z,102181.00
2023-05-19T17:04:12.796Z,102177.00
2023-05-19T17:06:42.535Z,102182.00
2023-05-19T17:09:09.325Z,102172.00
2023-05-19T17:11:35.986Z,102174.00
2023-05-19T17:14:04.300Z,102182.00
2023-05-19T17:16:32.529Z,102184.00
2023-05-19T17:18:59.156Z,102180.00
2023-05-19T17:21:25.983Z,102182.00
2023-05-19T17:23:52.589Z,102184.00
2023-05-19T17:26:19.406Z,102189.00
2023-05-19T17:28:46.274Z,102177.00
2023-05-19T17:31:14.316Z,102177.00
2023-05-19T17:33:41.527Z,102178.00
2023-05-19T17:36:09.071Z,102184.00
2023-05-19T17:38:35.767Z,102185.00
2023-05-19T17:41:02.972Z,102188.00
2023-05-19T17:43:29.839Z,102190.00
2023-05-19T17:45:58.792Z,102191.00
2023-05-19T17:48:26.924Z,102190.00
2023-05-19T17:50:53.481Z,102184.00
2023-05-19T17:53:20.332Z,102185.00
2023-05-19T17:55:59.532Z,102184.00
2023-05-19T17:58:27.362Z,102191.00
2023-05-19T18:00:54.770Z,102187.00
2023-05-19T18:03:22.955Z,102186.00
2023-05-19T18:05:50.941Z,102185.00
2023-05-19T18:08:18.328Z,102182.00
2023-05-19T18:10:46.269Z,102182.00
2023-05-19T18:13:15.646Z,102185.00
2023-05-19T18:15:45.423Z,102183.00
2023-05-19T18:18:12.504Z,102185.00
2023-05-19T18:20:41.306Z,102183.00
2023-05-19T18:23:09.923Z,102186.00
2023-05-19T18:25:37.663Z,102184.00
2023-05-19T18:28:06.739Z,102192.00
2023-05-19T18:30:33.844Z,102186.00
2023-05-19T18:33:03.600Z,102191.00
2023-05-19T18:35:30.770Z,102199.00
2023-05-19T18:37:57.400Z,102199.00
2023-05-19T18:40:25.533Z,102205.00
2023-05-19T18:42:52.123Z,102199.00
2023-05-19T18:45:18.786Z,102208.00
2023-05-19T18:47:46.245Z,102211.00
2023-05-19T18:50:14.510Z,102214.00
2023-05-19T18:52:43.423Z,102214.00
2023-05-19T18:55:10.083Z,102215.00
2023-05-19T18:57:41.140Z,102206.00
2023-05-19T19:00:10.279Z,102208.00
2023-05-19T19:02:36.987Z,102213.00
2023-05-19T19:05:06.371Z,102213.00
2023-05-19T19:07:35.459Z,102215.00
2023-05-19T19:10:03.889Z,102205.00
2023-05-19T19:12:30.817Z,102211.00
2023-05-19T19:14:57.340Z,102211.00
2023-05-19T19:17:24.090Z,102217.00
2023-05-19T19:19:51.191Z,102210.00
2023-05-19T19:22:20.809Z,102218.00
2023-05-19T19:24:47.923Z,102222.00
2023-05-19T19:27:19.741Z,102223.00
2023-05-19T19:29:47.037Z,102218.00
2023-05-19T19:32:15.214Z,102213.00
2023-05-19T19:34:43.039Z,102223.00
2023-05-19T19:37:10.330Z,102216.00
2023-05-19T19:39:38.308Z,102224.00
2023-05-19T19:42:06.311Z,102228.00
2023-05-19T19:44:32.908Z,102223.00
2023-05-19T19:46:59.836Z,102220.00
2023-05-19T19:49:28.991Z,102221.00
2023-05-19T19:51:56.024Z,102219.00
2023-05-19T19:54:22.560Z,102213.00
2023-05-19T19:56:49.291Z,102218.00
2023-05-19T19:59:18.430Z,102218.00
2023-05-19T20:01:45.037Z,102222.00
2023-05-19T20:04:12.292Z,102221.00
2023-05-19T20:06:38.913Z,102225.00
2023-05-19T20:09:05.744Z,102227.00
2023-05-19T20:11:34.765Z,102226.00
2023-05-19T20:14:03.719Z,102224.00
2023-05-19T20:16:30.398Z,102229.00
2023-05-19T20:18:57.202Z,102235.00
2023-05-19T20:21:26.441Z,102229.00
2023-05-19T20:23:53.320Z,102236.00
2023-05-19T20:26:21.143Z,102239.00
2023-05-19T20:28:49.853Z,102239.00
2023-05-19T20:31:16.562Z,102243.00
2023-05-19T20:33:43.136Z,102239.00
2023-05-19T20:36:12.938Z,102235.00
2023-05-19T20:38:41.298Z,102246.00
2023-05-19T20:41:07.998Z,102237.00
2023-05-19T20:43:34.651Z,102241.00
2023-05-19T20:46:01.795Z,102239.00
2023-05-19T20:48:28.385Z,102247.00
2023-05-19T20:50:54.930Z,102250.00
2023-05-19T20:53:21.728Z,102241.00
2023-05-19T20:55:48.419Z,102241.00
2023-05-19T20:58:15.433Z,102244.00
2023-05-19T21:00:42.031Z,102238.00
2023-05-19T21:03:08.793Z,102241.00
2023-05-19T21:05:36.309Z,102242.00
2023-05-19T21:08:05.345Z,102246.00
2023-05-19T21:10:32.388Z,102248.00
2023-05-19T21:12:59.303Z,102247.00
2023-05-19T21:15:27.236Z,102251.00
2023-05-19T21:17:55.416Z,102249.00
2023-05-19T21:20:22.233Z,102255.00
2023-05-19T21:22:50.481Z,102257.00
2023-05-19T21:25:17.124Z,102257.00
2023-05-19T21:27:46.375Z,102263.00
2023-05-19T21:30:13.620Z,102257.00
2023-05-19T21:32:40.797Z,102261.00
2023-05-19T21:35:07.729Z,102260.00
2023-05-19T21:37:35.267Z,102270.00
2023-05-19T21:40:01.961Z,102272.00
2023-05-19T21:42:28.476Z,102264.00
2023-05-19T21:44:56.789Z,102269.00
2023-05-19T21:47:23.335Z,102273.00
2023-05-19T21:49:49.897Z,102277.00
2023-05-19T21:52:16.739Z,102273.00
2023-05-19T21:54:45.593Z,102267.00
2023-05-19T21:57:12.709Z,102268.00
2023-05-19T21:59:39.673Z,102267.00
2023-05-19T22:02:06.613Z,102264.00
2023-05-19T22:04:34.267Z,102267.00
2023-05-19T22:07:00.978Z,102271.00
2023-05-19T22:09:29.452Z,102276.00
2023-05-19T22:11:56.023Z,102275.00
2023-05-19T22:14:22.931Z,102284.00
2023-05-19T22:16:49.725Z,102277.00
2023-05-19T22:19:16.761Z,102285.00
2023-05-19T22:21:43.403Z,102281.00
2023-05-19T22:24:10.481Z,102281.00
2023-05-19T22:26:37.302Z,102289.00
2023-05-19T22:29:04.464Z,102293.00
2023-05-19T22:31:31.109Z,102291.00
2023-05-19T22:33:57.944Z,102294.00
2023-05-19T22:36:24.532Z,102281.00
2023-05-19T22:38:51.046Z,102278.00
2023-05-19T22:41:17.609Z,102288.00
2023-05-19T22:43:44.538Z,102282.00
2023-05-19T22:46:12.347Z,102279.00
2023-05-19T22:48:38.907Z,102284.00
2023-05-19T22:51:05.554Z,102276.00
2023-05-19T22:53:32.099Z,102276.00
2023-05-19T22:55:59.051Z,102285.00
2023-05-19T22:58:25.651Z,102284.00
2023-05-19T23:00:52.535Z,102282.00
2023-05-19T23:03:19.657Z,102276.00
2023-05-19T23:05:46.435Z,102274.00
2023-05-19T23:08:13.026Z,102281.00
2023-05-19T23:10:41.405Z,102271.00
2023-05-19T23:13:09.683Z,102275.00
2023-05-19T23:15:36.354Z,102267.00
2023-05-19T23:18:07.490Z,102269.00
2023-05-19T23:20:35.377Z,102278.00
2023-05-19T23:23:02.273Z,102270.00
2023-05-19T23:25:28.857Z,102271.00
2023-05-19T23:27:55.505Z,102266.00
2023-05-19T23:30:22.365Z,102267.00
2023-05-19T23:32:51.150Z,102268.00
2023-05-19T23:35:19.997Z,102272.00
2023-05-19T23:37:46.601Z,102266.00
2023-05-19T23:40:13.227Z,102262.00
2023-05-19T23:42:39.787Z,102266.00
2023-05-19T23:45:06.809Z,102264.00
2023-05-19T23:47:33.353Z,102273.00
2023-05-19T23:49:59.994Z,102274.00
2023-05-19T23:52:26.843Z,102276.00
2023-05-19T23:54:53.397Z,102269.00
2023-05-19T23:57:21.470Z,102274.00
2023-05-19T23:59:47.933Z,102273.00
